createdAt,value
2023-01-19T00:01:01.100Z,11.00
2023-01-19T00:03:28.913Z,8.00
2023-01-19T00:05:56.839Z,11.75
2023-01-19T00:08:24.564Z,8.00
2023-01-19T00:10:51.664Z,8.50
2023-01-19T00:13:18.436Z,9.00
2023-01-19T00:15:45.383Z,21.50
2023-01-19T00:18:12.447Z,14.50
2023-01-19T00:20:40.795Z,18.00
2023-01-19T00:23:08.449Z,16.00
2023-01-19T00:25:36.253Z,14.00
2023-01-19T00:28:04.297Z,18.33
2023-01-19T00:30:32.036Z,22.00
2023-01-19T00:33:00.351Z,25.67
2023-01-19T00:35:28.287Z,18.00
2023-01-19T00:37:56.824Z,16.50
2023-01-19T00:40:23.808Z,15.00
2023-01-19T00:42:50.743Z,17.00
2023-01-19T00:45:20.328Z,16.00
2023-01-19T00:47:48.840Z,8.50
2023-01-19T00:50:17.737Z,6.00
2023-01-19T00:52:45.068Z,9.00
2023-01-19T00:55:15.329Z,7.50
2023-01-19T00:57:43.439Z,7.25
2023-01-19T01:00:14.468Z,7.75
2023-01-19T01:02:43.575Z,6.00
2023-01-19T01:05:12.451Z,6.75
2023-01-19T01:07:41.920Z,5.25
2023-01-19T01:10:18.506Z,7.50
2023-01-19T01:12:54.974Z,5.25
2023-01-19T01:15:27.833Z,9.25
2023-01-19T01:17:56.325Z,7.50
2023-01-19T01:20:28.271Z,8.00
2023-01-19T01:22:55.852Z,4.33
2023-01-19T01:25:25.798Z,8.00
2023-01-19T01:27:54.952Z,7.25
2023-01-19T01:30:23.580Z,7.25
2023-01-19T01:32:51.551Z,10.50
2023-01-19T01:35:19.324Z,8.50
2023-01-19T01:37:46.164Z,12.00
2023-01-19T01:40:15.139Z,9.00
2023-01-19T01:42:42.743Z,9.00
2023-01-19T01:45:26.100Z,10.00
2023-01-19T01:47:57.557Z,9.50
2023-01-19T01:50:32.808Z,10.25
2023-01-19T01:53:07.967Z,11.00
2023-01-19T01:55:39.957Z,11.00
2023-01-19T01:58:10.034Z,14.00
2023-01-19T02:00:59.420Z,10.00
2023-01-19T02:03:27.994Z,13.50
2023-01-19T02:06:00.492Z,11.50
2023-01-19T02:09:01.953Z,10.00
2023-01-19T02:11:48.640Z,11.00
2023-01-19T02:14:16.332Z,11.00
2023-01-19T02:16:43.239Z,10.00
2023-01-19T02:19:16.730Z,4.25
2023-01-19T02:21:52.272Z,10.75
2023-01-19T02:24:19.552Z,11.00
2023-01-19T02:26:49.045Z,12.75
2023-01-19T02:29:19.918Z,11.00
2023-01-19T02:31:47.074Z,14.00
2023-01-19T02:34:17.601Z,11.00
2023-01-19T02:37:06.860Z,5.00
2023-01-19T02:39:38.859Z,6.00
2023-01-19T02:42:13.271Z,7.00
2023-01-19T02:44:45.542Z,1.00
2023-01-19T02:47:13.902Z,11.25
2023-01-19T02:49:42.401Z,7.50
2023-01-19T02:52:18.176Z,11.25
2023-01-19T02:55:02.013Z,11.00
2023-01-19T02:57:50.234Z,11.67
2023-01-19T03:00:38.677Z,8.00
2023-01-19T03:03:23.713Z,13.50
2023-01-19T03:05:57.060Z,15.00
2023-01-19T03:08:41.921Z,13.00
2023-01-19T03:11:12.871Z,8.00
2023-01-19T03:14:00.968Z,13.00
2023-01-19T03:16:51.475Z,11.00
2023-01-19T03:19:43.881Z,15.43
2023-01-19T03:22:19.411Z,14.00
2023-01-19T03:24:50.244Z,16.00
2023-01-19T03:27:27.711Z,18.00
2023-01-19T03:30:06.114Z,20.80
2023-01-19T03:32:41.673Z,19.50
2023-01-19T03:35:14.271Z,19.00
2023-01-19T03:37:44.793Z,20.67
2023-01-19T03:40:12.963Z,17.25
2023-01-19T03:42:42.709Z,25.33
2023-01-19T03:45:12.827Z,33.00
2023-01-19T03:47:41.268Z,33.67
2023-01-19T03:50:14.745Z,24.67
2023-01-19T03:52:42.619Z,31.67
2023-01-19T03:55:10.613Z,31.00
2023-01-19T03:57:38.548Z,35.33
2023-01-19T04:00:07.054Z,35.33
2023-01-19T04:02:33.932Z,26.00
2023-01-19T04:05:01.698Z,40.67
2023-01-19T04:07:29.701Z,39.00
2023-01-19T04:09:56.750Z,34.00
2023-01-19T04:12:25.077Z,38.00
2023-01-19T04:14:52.119Z,35.00
2023-01-19T04:17:19.855Z,37.67
2023-01-19T04:19:47.693Z,40.67
2023-01-19T04:22:15.882Z,30.33
2023-01-19T04:24:43.921Z,36.50
2023-01-19T04:27:11.074Z,39.50
2023-01-19T04:29:38.183Z,31.00
2023-01-19T04:32:06.042Z,28.33
2023-01-19T04:34:34.234Z,39.00
2023-01-19T04:37:01.537Z,30.50
2023-01-19T04:39:28.641Z,31.50
2023-01-19T04:41:57.802Z,32.33
2023-01-19T04:44:25.770Z,27.33
2023-01-19T04:46:54.122Z,28.33
2023-01-19T04:49:21.528Z,27.50
2023-01-19T04:51:50.009Z,30.00
2023-01-19T04:54:18.329Z,25.00
2023-01-19T04:56:46.971Z,29.33
2023-01-19T04:59:15.775Z,25.00
2023-01-19T05:01:42.738Z,10.00
2023-01-19T05:04:10.491Z,26.33
2023-01-19T05:06:38.379Z,31.33
2023-01-19T05:09:09.157Z,27.33
2023-01-19T05:11:36.835Z,24.67
2023-01-19T05:14:03.778Z,24.00
2023-01-19T05:16:32.164Z,19.33
2023-01-19T05:18:59.811Z,25.33
2023-01-19T05:21:28.400Z,25.00
2023-01-19T05:23:56.637Z,26.00
2023-01-19T05:26:23.554Z,19.00
2023-01-19T05:28:51.194Z,24.00
2023-01-19T05:31:20.923Z,28.33
2023-01-19T05:33:49.175Z,24.00
2023-01-19T05:36:18.703Z,29.33
2023-01-19T05:38:46.546Z,26.67
2023-01-19T05:41:14.582Z,26.33
2023-01-19T05:43:42.498Z,23.67
2023-01-19T05:46:09.779Z,18.50
2023-01-19T05:48:40.129Z,25.50
2023-01-19T05:51:09.179Z,19.00
2023-01-19T05:53:37.072Z,30.67
2023-01-19T05:56:10.470Z,23.83
2023-01-19T05:58:41.957Z,24.00
2023-01-19T06:01:10.699Z,13.00
2023-01-19T06:03:39.468Z,17.00
2023-01-19T06:06:07.564Z,36.67
2023-01-19T06:08:35.441Z,27.00
2023-01-19T06:11:06.085Z,24.80
2023-01-19T06:13:34.429Z,24.00
2023-01-19T06:16:03.952Z,18.33
2023-01-19T06:18:31.724Z,23.33
2023-01-19T06:21:14.478Z,14.40
2023-01-19T06:23:45.032Z,24.29
2023-01-19T06:26:13.671Z,24.33
2023-01-19T06:28:40.548Z,23.00
2023-01-19T06:31:08.462Z,29.33
2023-01-19T06:33:36.304Z,20.33
2023-01-19T06:36:04.220Z,27.67
2023-01-19T06:38:33.484Z,33.00
2023-01-19T06:41:02.746Z,33.00
2023-01-19T06:43:31.513Z,24.67
2023-01-19T06:46:05.124Z,22.20
2023-01-19T06:48:32.995Z,27.33
2023-01-19T06:51:00.308Z,21.50
2023-01-19T06:53:30.450Z,27.00
2023-01-19T06:56:02.774Z,26.67
2023-01-19T06:58:34.045Z,26.33
2023-01-19T07:01:05.789Z,18.67
2023-01-19T07:03:34.830Z,28.67
2023-01-19T07:06:06.825Z,21.00
2023-01-19T07:08:36.475Z,24.67
2023-01-19T07:11:24.733Z,21.50
2023-01-19T07:13:55.675Z,19.00
2023-01-19T07:16:25.531Z,24.83
2023-01-19T07:18:53.420Z,27.67
2023-01-19T07:21:21.850Z,29.67
2023-01-19T07:23:53.070Z,27.50
2023-01-19T07:26:21.864Z,27.00
2023-01-19T07:28:54.714Z,26.67
2023-01-19T07:31:24.702Z,24.17
2023-01-19T07:33:54.312Z,23.83
2023-01-19T07:36:22.301Z,31.00
2023-01-19T07:38:49.913Z,37.33
2023-01-19T07:41:17.747Z,32.33
2023-01-19T07:43:45.539Z,28.33
2023-01-19T07:46:12.544Z,30.50
2023-01-19T07:48:40.467Z,25.00
2023-01-19T07:51:12.973Z,27.33
2023-01-19T07:53:42.157Z,32.33
2023-01-19T07:56:11.683Z,24.50
2023-01-19T07:58:40.099Z,28.00
2023-01-19T08:01:12.608Z,23.33
2023-01-19T08:03:41.611Z,21.40
2023-01-19T08:06:22.267Z,23.00
2023-01-19T08:08:51.890Z,19.50
2023-01-19T08:11:21.563Z,18.33
2023-01-19T08:13:48.582Z,12.50
2023-01-19T08:16:15.887Z,14.00
2023-01-19T08:18:42.943Z,15.00
2023-01-19T08:21:10.042Z,12.50
2023-01-19T08:23:36.985Z,20.00
2023-01-19T08:26:21.552Z,13.00
2023-01-19T08:28:48.434Z,13.00
2023-01-19T08:31:21.146Z,13.60
2023-01-19T08:33:50.227Z,16.00
2023-01-19T08:36:17.327Z,18.00
2023-01-19T08:38:48.319Z,19.00
2023-01-19T08:41:17.118Z,11.00
2023-01-19T08:43:45.578Z,16.00
2023-01-19T08:46:12.900Z,14.00
2023-01-19T08:48:40.807Z,17.67
2023-01-19T08:51:10.330Z,17.83
2023-01-19T08:53:37.082Z,11.00
2023-01-19T08:56:04.123Z,14.00
2023-01-19T08:58:31.119Z,16.50
2023-01-19T09:01:01.503Z,13.00
2023-01-19T09:03:30.776Z,15.75
2023-01-19T09:05:59.782Z,17.80
2023-01-19T09:08:27.553Z,9.50
2023-01-19T09:10:54.570Z,12.00
2023-01-19T09:13:22.366Z,10.75
2023-01-19T09:15:50.713Z,10.50
2023-01-19T09:18:21.900Z,10.25
2023-01-19T09:20:50.605Z,15.50
2023-01-19T09:23:19.600Z,20.50
2023-01-19T09:25:47.376Z,19.00
2023-01-19T09:28:17.759Z,16.50
2023-01-19T09:30:44.938Z,16.00
2023-01-19T09:33:16.567Z,19.50
2023-01-19T09:35:46.241Z,22.00
2023-01-19T09:38:15.526Z,14.00
2023-01-19T09:40:56.709Z,19.00
2023-01-19T09:43:27.103Z,13.00
2023-01-19T09:45:58.528Z,16.50
2023-01-19T09:48:46.009Z,20.33
2023-01-19T09:51:18.360Z,18.00
2023-01-19T09:53:55.607Z,20.00
2023-01-19T09:56:23.809Z,18.00
2023-01-19T09:58:52.206Z,15.00
2023-01-19T10:01:41.742Z,15.00
2023-01-19T10:04:42.242Z,14.50
2023-01-19T10:07:44.197Z,18.50
2023-01-19T10:10:21.680Z,18.50
2023-01-19T10:13:27.495Z,13.40
2023-01-19T10:16:22.157Z,10.00
2023-01-19T10:18:52.349Z,15.50
2023-01-19T10:21:28.227Z,14.00
2023-01-19T10:24:13.842Z,14.00
2023-01-19T10:26:52.782Z,11.00
2023-01-19T10:29:39.498Z,12.25
2023-01-19T10:32:19.960Z,6.00
2023-01-19T10:34:51.604Z,12.00
2023-01-19T10:37:29.753Z,11.50
2023-01-19T10:40:23.198Z,18.00
2023-01-19T10:42:53.124Z,25.83
2023-01-19T10:45:24.131Z,28.67
2023-01-19T10:47:55.372Z,26.00
2023-01-19T10:50:32.620Z,23.00
2023-01-19T10:53:04.269Z,19.67
2023-01-19T10:55:39.925Z,21.00
2023-01-19T10:58:28.765Z,29.33
2023-01-19T11:01:18.028Z,22.67
2023-01-19T11:03:48.754Z,18.67
2023-01-19T11:06:16.562Z,25.33
2023-01-19T11:08:46.106Z,18.50
2023-01-19T11:11:15.533Z,23.17
2023-01-19T11:13:44.157Z,19.33
2023-01-19T11:16:27.166Z,22.67
2023-01-19T11:18:56.782Z,12.50
2023-01-19T11:21:30.784Z,15.33
2023-01-19T11:24:00.900Z,15.00
2023-01-19T11:26:34.757Z,15.00
2023-01-19T11:29:04.150Z,16.00
2023-01-19T11:31:36.034Z,10.00
2023-01-19T11:34:06.300Z,13.00
2023-01-19T11:36:36.103Z,10.00
2023-01-19T11:39:28.260Z,15.00
2023-01-19T11:42:02.448Z,20.67
2023-01-19T11:44:47.974Z,16.00
2023-01-19T11:47:28.312Z,11.00
2023-01-19T11:50:04.889Z,14.80
2023-01-19T11:52:43.221Z,16.00
2023-01-19T11:55:14.971Z,18.50
2023-01-19T11:57:54.471Z,15.50
2023-01-19T12:00:39.924Z,9.75
2023-01-19T12:03:30.998Z,12.50
2023-01-19T12:06:06.933Z,14.00
2023-01-19T12:08:51.761Z,15.00
2023-01-19T12:11:39.196Z,22.00
2023-01-19T12:14:24.471Z,21.50
2023-01-19T12:16:53.429Z,10.00
2023-01-19T12:19:29.580Z,13.00
2023-01-19T12:21:57.591Z,10.00
2023-01-19T12:24:36.732Z,30.33
2023-01-19T12:27:35.356Z,41.00
2023-01-19T12:30:04.158Z,22.67
2023-01-19T12:32:37.036Z,67.67
2023-01-19T12:35:04.300Z,28.00
2023-01-19T12:37:36.366Z,24.00
2023-01-19T12:40:20.706Z,43.33
2023-01-19T12:42:59.172Z,35.00
2023-01-19T12:45:48.351Z,31.67
2023-01-19T12:48:26.599Z,32.00
2023-01-19T12:50:55.036Z,24.33
2023-01-19T12:53:23.123Z,33.33
2023-01-19T12:56:02.092Z,30.67
2023-01-19T12:58:30.212Z,33.67
2023-01-19T13:01:21.278Z,21.67
2023-01-19T13:04:27.336Z,35.67
2023-01-19T13:06:55.671Z,32.67
2023-01-19T13:09:33.491Z,33.33
2023-01-19T13:12:21.346Z,39.00
2023-01-19T13:14:50.799Z,27.00
2023-01-19T13:17:27.126Z,27.00
2023-01-19T13:20:17.322Z,45.00
2023-01-19T13:22:50.998Z,39.67
2023-01-19T13:25:35.903Z,15.50
2023-01-19T13:28:09.355Z,25.00
2023-01-19T13:30:46.067Z,35.33
2023-01-19T13:33:21.564Z,14.50
2023-01-19T13:35:54.888Z,39.00
2023-01-19T13:38:27.577Z,38.00
2023-01-19T13:40:56.766Z,27.00
2023-01-19T13:43:37.756Z,31.00
2023-01-19T13:46:05.927Z,36.50
2023-01-19T13:48:34.788Z,37.50
2023-01-19T13:51:06.791Z,28.33
2023-01-19T13:53:34.679Z,35.00
2023-01-19T13:56:23.613Z,43.67
2023-01-19T13:59:00.233Z,28.00
2023-01-19T14:01:29.371Z,40.00
2023-01-19T14:03:57.745Z,48.00
2023-01-19T14:06:46.658Z,34.00
2023-01-19T14:09:19.302Z,30.50
2023-01-19T14:12:07.170Z,33.33
2023-01-19T14:14:34.267Z,30.50
2023-01-19T14:17:06.656Z,27.67
2023-01-19T14:19:51.664Z,28.67
2023-01-19T14:22:19.802Z,32.67
2023-01-19T14:24:50.949Z,31.67
2023-01-19T14:27:24.439Z,37.00
2023-01-19T14:29:54.472Z,46.00
2023-01-19T14:32:27.855Z,34.00
2023-01-19T14:35:05.116Z,36.00
2023-01-19T14:37:35.973Z,40.50
2023-01-19T14:40:13.233Z,37.33
2023-01-19T14:42:53.621Z,33.67
2023-01-19T14:45:30.674Z,31.67
2023-01-19T14:48:04.177Z,30.50
2023-01-19T14:50:37.692Z,33.67
2023-01-19T14:53:17.048Z,26.00
2023-01-19T14:55:50.580Z,42.75
2023-01-19T14:58:20.911Z,40.00
2023-01-19T15:00:49.489Z,31.00
2023-01-19T15:03:17.514Z,44.00
2023-01-19T15:05:47.081Z,35.50
2023-01-19T15:08:21.811Z,39.50
2023-01-19T15:10:50.516Z,37.75
2023-01-19T15:13:21.112Z,44.00
2023-01-19T15:15:50.409Z,16.40
2023-01-19T15:18:22.917Z,28.00
2023-01-19T15:20:55.600Z,23.33
2023-01-19T15:23:23.399Z,30.00
2023-01-19T15:25:52.398Z,29.33
2023-01-19T15:28:20.483Z,45.00
2023-01-19T15:30:48.496Z,51.50
2023-01-19T15:33:26.541Z,35.00
2023-01-19T15:35:54.228Z,36.50
2023-01-19T15:38:22.641Z,35.33
2023-01-19T15:41:17.842Z,38.50
2023-01-19T15:43:44.820Z,38.00
2023-01-19T15:46:15.914Z,43.00
2023-01-19T15:48:42.961Z,43.00
2023-01-19T15:51:18.604Z,40.00
2023-01-19T15:53:48.925Z,38.33
2023-01-19T15:56:21.324Z,35.50
2023-01-19T15:58:48.255Z,39.50
2023-01-19T16:01:22.212Z,23.33
2023-01-19T16:03:50.766Z,43.00
2023-01-19T16:06:18.505Z,52.00
2023-01-19T16:08:45.684Z,34.00
2023-01-19T16:11:15.368Z,39.00
2023-01-19T16:13:46.743Z,59.00
2023-01-19T16:16:19.258Z,35.50
2023-01-19T16:18:47.158Z,38.67
2023-01-19T16:21:14.516Z,39.50
2023-01-19T16:23:42.065Z,45.00
2023-01-19T16:26:25.987Z,29.00
2023-01-19T16:28:56.282Z,39.50
2023-01-19T16:31:24.282Z,57.67
2023-01-19T16:33:52.565Z,37.00
2023-01-19T16:36:19.692Z,39.50
2023-01-19T16:38:46.605Z,45.50
2023-01-19T16:41:13.613Z,46.50
2023-01-19T16:43:40.729Z,50.50
2023-01-19T16:46:21.611Z,45.50
2023-01-19T16:48:48.712Z,43.00
2023-01-19T16:51:17.320Z,50.00
2023-01-19T16:53:45.891Z,49.67
2023-01-19T16:56:14.885Z,41.50
2023-01-19T16:58:43.260Z,59.00
2023-01-19T17:01:12.860Z,40.00
2023-01-19T17:03:43.029Z,41.00
2023-01-19T17:06:14.361Z,47.33
2023-01-19T17:08:43.045Z,45.00
2023-01-19T17:11:20.944Z,46.00
2023-01-19T17:13:54.595Z,46.00
2023-01-19T17:16:26.816Z,31.00
2023-01-19T17:18:57.220Z,50.00
2023-01-19T17:21:24.482Z,30.00
2023-01-19T17:23:55.453Z,49.67
2023-01-19T17:26:25.332Z,41.00
2023-01-19T17:29:02.430Z,34.67
2023-01-19T17:31:30.850Z,25.00
2023-01-19T17:33:59.996Z,30.67
2023-01-19T17:36:29.344Z,13.00
2023-01-19T17:39:17.028Z,28.00
2023-01-19T17:41:45.838Z,43.25
2023-01-19T17:44:12.901Z,39.00
2023-01-19T17:46:41.093Z,32.67
2023-01-19T17:49:08.546Z,37.00
2023-01-19T17:51:36.478Z,28.00
2023-01-19T17:54:06.053Z,33.50
2023-01-19T17:56:36.965Z,28.00
2023-01-19T17:59:06.654Z,18.50
2023-01-19T18:01:34.935Z,36.00
2023-01-19T18:04:03.185Z,36.67
2023-01-19T18:06:31.059Z,37.67
2023-01-19T18:09:01.743Z,34.33
2023-01-19T18:11:29.698Z,32.00
2023-01-19T18:13:58.512Z,27.33
2023-01-19T18:16:27.757Z,35.00
2023-01-19T18:18:56.625Z,63.50
2023-01-19T18:21:28.274Z,46.00
2023-01-19T18:24:01.556Z,42.00
2023-01-19T18:26:29.374Z,42.00
2023-01-19T18:28:57.593Z,40.33
2023-01-19T18:31:27.787Z,35.00
2023-01-19T18:33:55.706Z,41.00
2023-01-19T18:36:23.836Z,50.67
2023-01-19T18:38:51.973Z,35.67
2023-01-19T18:41:21.596Z,44.00
2023-01-19T18:43:49.855Z,39.00
2023-01-19T18:46:17.281Z,35.00
2023-01-19T18:48:46.185Z,50.00
2023-01-19T18:51:15.830Z,34.00
2023-01-19T18:53:44.719Z,36.67
2023-01-19T18:56:13.794Z,40.00
2023-01-19T18:58:42.853Z,28.00
2023-01-19T19:01:17.944Z,31.00
2023-01-19T19:03:45.877Z,38.00
2023-01-19T19:06:14.676Z,32.33
2023-01-19T19:08:44.218Z,33.33
2023-01-19T19:11:14.188Z,27.33
2023-01-19T19:13:42.478Z,30.33
2023-01-19T19:16:12.154Z,31.50
2023-01-19T19:18:40.214Z,28.00
2023-01-19T19:21:10.235Z,31.67
2023-01-19T19:23:38.953Z,34.33
2023-01-19T19:26:09.618Z,27.00
2023-01-19T19:28:39.032Z,39.50
2023-01-19T19:31:09.280Z,33.00
2023-01-19T19:33:38.110Z,42.67
2023-01-19T19:36:07.045Z,45.00
2023-01-19T19:38:36.988Z,55.33
2023-01-19T19:41:06.607Z,62.00
2023-01-19T19:43:36.501Z,64.33
2023-01-19T19:46:09.545Z,52.67
2023-01-19T19:48:39.235Z,43.00
2023-01-19T19:51:18.441Z,43.67
2023-01-19T19:53:46.282Z,40.00
2023-01-19T19:56:13.798Z,35.00
2023-01-19T19:58:43.840Z,42.00
2023-01-19T20:01:14.440Z,34.33
2023-01-19T20:03:42.407Z,50.33
2023-01-19T20:06:15.382Z,57.67
2023-01-19T20:08:42.349Z,39.00
2023-01-19T20:11:11.962Z,43.50
2023-01-19T20:13:40.669Z,42.50
2023-01-19T20:16:12.682Z,41.33
2023-01-19T20:18:48.762Z,54.33
2023-01-19T20:21:16.995Z,32.00
2023-01-19T20:24:06.511Z,52.00
2023-01-19T20:26:36.977Z,49.33
2023-01-19T20:29:12.145Z,48.33
2023-01-19T20:31:43.317Z,38.00
2023-01-19T20:34:13.573Z,45.33
2023-01-19T20:36:41.278Z,41.00
2023-01-19T20:39:13.044Z,40.50
2023-01-19T20:41:45.551Z,36.50
2023-01-19T20:44:16.669Z,35.67
2023-01-19T20:46:45.000Z,35.33
2023-01-19T20:49:13.426Z,27.33
2023-01-19T20:51:43.604Z,36.33
2023-01-19T20:54:12.031Z,34.00
2023-01-19T20:56:41.345Z,33.00
2023-01-19T20:59:11.895Z,42.50
2023-01-19T21:01:40.278Z,31.00
2023-01-19T21:04:08.861Z,40.00
2023-01-19T21:06:37.467Z,33.67
2023-01-19T21:09:05.529Z,39.33
2023-01-19T21:11:34.079Z,33.00
2023-01-19T21:14:02.355Z,31.00
2023-01-19T21:16:33.339Z,31.00
2023-01-19T21:19:01.855Z,34.33
2023-01-19T21:21:31.398Z,35.00
2023-01-19T21:24:01.954Z,45.33
2023-01-19T21:26:33.717Z,32.50
2023-01-19T21:29:03.198Z,33.50
2023-01-19T21:31:30.481Z,31.00
2023-01-19T21:33:59.477Z,30.33
2023-01-19T21:36:27.768Z,35.33
2023-01-19T21:39:00.875Z,27.00
2023-01-19T21:41:30.204Z,27.50
2023-01-19T21:44:00.083Z,32.33
2023-01-19T21:46:29.532Z,33.50
2023-01-19T21:49:02.215Z,28.00
2023-01-19T21:51:33.763Z,35.00
2023-01-19T21:54:06.308Z,25.67
2023-01-19T21:56:35.316Z,30.67
2023-01-19T21:59:03.727Z,25.00
2023-01-19T22:01:33.722Z,30.00
2023-01-19T22:04:02.003Z,34.67
2023-01-19T22:06:30.181Z,33.00
2023-01-19T22:08:58.523Z,34.67
2023-01-19T22:11:27.050Z,32.33
2023-01-19T22:13:55.181Z,27.33
2023-01-19T22:16:24.090Z,30.00
2023-01-19T22:18:59.634Z,30.67
2023-01-19T22:21:32.681Z,24.83
2023-01-19T22:24:02.072Z,26.33
2023-01-19T22:26:31.060Z,28.00
2023-01-19T22:29:01.548Z,34.67
2023-01-19T22:31:30.648Z,26.00
2023-01-19T22:34:11.055Z,37.50
2023-01-19T22:36:40.696Z,34.67
2023-01-19T22:39:11.397Z,27.67
2023-01-19T22:41:46.884Z,20.00
2023-01-19T22:44:16.578Z,35.00
2023-01-19T22:46:46.150Z,25.83
2023-01-19T22:49:17.168Z,30.67
2023-01-19T22:51:45.450Z,27.67
2023-01-19T22:54:13.855Z,38.33
2023-01-19T22:56:42.104Z,33.00
2023-01-19T22:59:09.864Z,24.00
2023-01-19T23:01:40.195Z,24.67
2023-01-19T23:04:11.913Z,27.67
2023-01-19T23:06:39.309Z,33.00
2023-01-19T23:09:12.218Z,28.33
2023-01-19T23:11:42.647Z,29.33
2023-01-19T23:14:15.858Z,39.67
2023-01-19T23:16:43.008Z,18.00
2023-01-19T23:19:12.259Z,24.00
2023-01-19T23:21:41.869Z,26.00
2023-01-19T23:24:09.848Z,30.67
2023-01-19T23:26:40.375Z,28.67
2023-01-19T23:29:12.764Z,30.33
2023-01-19T23:31:44.447Z,29.50
2023-01-19T23:34:13.682Z,28.33
2023-01-19T23:36:42.786Z,30.00
2023-01-19T23:39:16.477Z,22.00
2023-01-19T23:41:44.339Z,28.00
2023-01-19T23:44:13.699Z,35.50
2023-01-19T23:46:41.558Z,25.67
2023-01-19T23:49:09.556Z,26.33
2023-01-19T23:51:37.692Z,22.67
2023-01-19T23:54:06.435Z,19.20
2023-01-19T23:56:37.299Z,34.67
2023-01-19T23:59:07.528Z,31.00
